sensor_id;sensor_type;location;lat;lon;timestamp;temperature;humidity
65072;DHT22;51663;52.310;17.016;2023-02-12T00:02:18;28.70;28.00
65072;DHT22;51663;52.310;17.016;2023-02-12T00:05:20;29.20;27.90
65072;DHT22;51663;52.310;17.016;2023-02-12T00:08:22;29.40;27.60
65072;DHT22;51663;52.310;17.016;2023-02-12T00:11:26;29.40;27.50
65072;DHT22;51663;52.310;17.016;2023-02-12T00:14:29;29.60;27.30
65072;DHT22;51663;52.310;17.016;2023-02-12T00:17:31;29.90;27.20
65072;DHT22;51663;52.310;17.016;2023-02-12T00:20:34;30.00;27.00
65072;DHT22;51663;52.310;17.016;2023-02-12T00:23:37;30.10;26.90
65072;DHT22;51663;52.310;17.016;2023-02-12T00:26:42;30.00;27.00
65072;DHT22;51663;52.310;17.016;2023-02-12T00:29:44;29.70;27.10
65072;DHT22;51663;52.310;17.016;2023-02-12T00:32:46;29.60;27.20
65072;DHT22;51663;52.310;17.016;2023-02-12T00:36:08;29.20;27.40
65072;DHT22;51663;52.310;17.016;2023-02-12T00:39:10;29.40;27.50
65072;DHT22;51663;52.310;17.016;2023-02-12T00:42:13;29.50;27.40
65072;DHT22;51663;52.310;17.016;2023-02-12T00:45:15;29.80;27.10
65072;DHT22;51663;52.310;17.016;2023-02-12T00:48:17;29.80;27.10
65072;DHT22;51663;52.310;17.016;2023-02-12T00:51:20;30.00;26.90
65072;DHT22;51663;52.310;17.016;2023-02-12T00:54:22;30.10;26.70
65072;DHT22;51663;52.310;17.016;2023-02-12T00:57:24;30.10;26.90
65072;DHT22;51663;52.310;17.016;2023-02-12T01:00:26;30.00;26.80
65072;DHT22;51663;52.310;17.016;2023-02-12T01:03:29;29.10;27.30
65072;DHT22;51663;52.310;17.016;2023-02-12T01:06:31;28.50;27.90
65072;DHT22;51663;52.310;17.016;2023-02-12T01:09:33;28.30;28.20
65072;DHT22;51663;52.310;17.016;2023-02-12T01:12:35;28.40;28.20
65072;DHT22;51663;52.310;17.016;2023-02-12T01:15:37;28.60;28.10
65072;DHT22;51663;52.310;17.016;2023-02-12T01:18:39;28.30;28.30
65072;DHT22;51663;52.310;17.016;2023-02-12T01:21:43;28.30;28.50
65072;DHT22;51663;52.310;17.016;2023-02-12T01:24:45;28.10;28.30
65072;DHT22;51663;52.310;17.016;2023-02-12T01:27:47;27.70;28.60
65072;DHT22;51663;52.310;17.016;2023-02-12T01:30:49;28.10;28.40
65072;DHT22;51663;52.310;17.016;2023-02-12T01:33:55;28.50;28.10
65072;DHT22;51663;52.310;17.016;2023-02-12T01:36:57;28.80;27.70
65072;DHT22;51663;52.310;17.016;2023-02-12T01:39:59;29.10;27.60
65072;DHT22;51663;52.310;17.016;2023-02-12T01:43:01;29.10;27.40
65072;DHT22;51663;52.310;17.016;2023-02-12T01:46:05;29.20;27.30
65072;DHT22;51663;52.310;17.016;2023-02-12T01:49:22;28.80;27.50
65072;DHT22;51663;52.310;17.016;2023-02-12T01:52:29;28.50;27.70
65072;DHT22;51663;52.310;17.016;2023-02-12T01:55:32;28.60;27.90
65072;DHT22;51663;52.310;17.016;2023-02-12T01:58:38;28.60;27.70
65072;DHT22;51663;52.310;17.016;2023-02-12T02:01:41;28.50;27.50
65072;DHT22;51663;52.310;17.016;2023-02-12T02:04:49;28.30;27.50
65072;DHT22;51663;52.310;17.016;2023-02-12T02:07:52;28.30;27.80
65072;DHT22;51663;52.310;17.016;2023-02-12T02:10:57;28.00;27.80
65072;DHT22;51663;52.310;17.016;2023-02-12T02:14:00;27.90;28.30
65072;DHT22;51663;52.310;17.016;2023-02-12T02:24:01;27.10;28.90
65072;DHT22;51663;52.310;17.016;2023-02-12T02:27:15;27.20;28.50
65072;DHT22;51663;52.310;17.016;2023-02-12T02:30:21;27.80;28.10
65072;DHT22;51663;52.310;17.016;2023-02-12T02:40:13;28.00;27.50
65072;DHT22;51663;52.310;17.016;2023-02-12T02:43:25;28.70;26.90
65072;DHT22;51663;52.310;17.016;2023-02-12T02:46:55;29.30;26.40
65072;DHT22;51663;52.310;17.016;2023-02-12T02:50:00;29.40;26.10
65072;DHT22;51663;52.310;17.016;2023-02-12T02:53:11;29.20;26.00
65072;DHT22;51663;52.310;17.016;2023-02-12T02:56:16;29.00;26.40
65072;DHT22;51663;52.310;17.016;2023-02-12T02:59:27;29.40;26.10
65072;DHT22;51663;52.310;17.016;2023-02-12T03:02:36;29.50;26.00
65072;DHT22;51663;52.310;17.016;2023-02-12T03:05:42;29.40;25.90
65072;DHT22;51663;52.310;17.016;2023-02-12T03:08:50;28.80;25.90
65072;DHT22;51663;52.310;17.016;2023-02-12T03:11:59;28.50;26.20
65072;DHT22;51663;52.310;17.016;2023-02-12T03:15:26;28.50;26.30
65072;DHT22;51663;52.310;17.016;2023-02-12T03:18:38;28.90;25.90
65072;DHT22;51663;52.310;17.016;2023-02-12T03:25:13;29.30;25.50
65072;DHT22;51663;52.310;17.016;2023-02-12T03:28:34;29.40;25.30
65072;DHT22;51663;52.310;17.016;2023-02-12T03:35:08;28.90;25.50
65072;DHT22;51663;52.310;17.016;2023-02-12T03:38:17;28.30;25.80
65072;DHT22;51663;52.310;17.016;2023-02-12T03:41:30;28.80;25.80
65072;DHT22;51663;52.310;17.016;2023-02-12T03:44:54;29.20;25.30
65072;DHT22;51663;52.310;17.016;2023-02-12T03:48:26;28.80;25.40
65072;DHT22;51663;52.310;17.016;2023-02-12T03:51:34;28.70;25.50
65072;DHT22;51663;52.310;17.016;2023-02-12T03:54:38;28.50;25.70
65072;DHT22;51663;52.310;17.016;2023-02-12T03:57:47;28.20;26.00
65072;DHT22;51663;52.310;17.016;2023-02-12T04:00:50;28.90;25.70
65072;DHT22;51663;52.310;17.016;2023-02-12T04:03:53;29.10;25.40
65072;DHT22;51663;52.310;17.016;2023-02-12T04:06:55;29.40;25.20
65072;DHT22;51663;52.310;17.016;2023-02-12T04:09:58;29.30;25.10
65072;DHT22;51663;52.310;17.016;2023-02-12T04:13:23;29.40;25.00
65072;DHT22;51663;52.310;17.016;2023-02-12T04:27:10;29.30;25.00
65072;DHT22;51663;52.310;17.016;2023-02-12T04:30:43;29.20;24.90
65072;DHT22;51663;52.310;17.016;2023-02-12T04:33:57;29.30;25.00
65072;DHT22;51663;52.310;17.016;2023-02-12T04:40:42;29.50;24.70
65072;DHT22;51663;52.310;17.016;2023-02-12T04:43:44;29.80;24.50
65072;DHT22;51663;52.310;17.016;2023-02-12T04:46:47;29.90;24.50
65072;DHT22;51663;52.310;17.016;2023-02-12T04:49:49;29.90;24.40
65072;DHT22;51663;52.310;17.016;2023-02-12T04:52:51;29.80;24.40
65072;DHT22;51663;52.310;17.016;2023-02-12T04:55:53;29.80;24.50
65072;DHT22;51663;52.310;17.016;2023-02-12T04:58:56;29.80;24.40
65072;DHT22;51663;52.310;17.016;2023-02-12T05:01:58;29.80;24.40
65072;DHT22;51663;52.310;17.016;2023-02-12T05:05:01;29.30;24.80
65072;DHT22;51663;52.310;17.016;2023-02-12T05:08:05;29.10;24.90
65072;DHT22;51663;52.310;17.016;2023-02-12T05:11:08;29.30;25.20
65072;DHT22;51663;52.310;17.016;2023-02-12T05:14:11;29.30;25.50
65072;DHT22;51663;52.310;17.016;2023-02-12T05:17:13;29.20;25.40
65072;DHT22;51663;52.310;17.016;2023-02-12T05:20:16;29.30;25.30
65072;DHT22;51663;52.310;17.016;2023-02-12T05:23:18;29.30;25.20
65072;DHT22;51663;52.310;17.016;2023-02-12T05:26:21;29.20;25.30
65072;DHT22;51663;52.310;17.016;2023-02-12T05:29:24;29.20;25.20
65072;DHT22;51663;52.310;17.016;2023-02-12T05:32:26;29.10;25.40
65072;DHT22;51663;52.310;17.016;2023-02-12T05:35:28;29.20;25.40
65072;DHT22;51663;52.310;17.016;2023-02-12T05:38:30;29.00;25.50
65072;DHT22;51663;52.310;17.016;2023-02-12T05:41:33;29.10;25.40
65072;DHT22;51663;52.310;17.016;2023-02-12T05:44:36;29.30;25.20
65072;DHT22;51663;52.310;17.016;2023-02-12T05:47:38;29.20;24.80
65072;DHT22;51663;52.310;17.016;2023-02-12T05:50:40;29.30;24.80
65072;DHT22;51663;52.310;17.016;2023-02-12T05:53:43;29.10;24.80
65072;DHT22;51663;52.310;17.016;2023-02-12T05:56:46;29.10;24.70
65072;DHT22;51663;52.310;17.016;2023-02-12T05:59:49;28.90;24.80
65072;DHT22;51663;52.310;17.016;2023-02-12T06:02:51;29.00;24.80
65072;DHT22;51663;52.310;17.016;2023-02-12T06:05:55;29.20;24.80
65072;DHT22;51663;52.310;17.016;2023-02-12T06:08:58;29.20;24.70
65072;DHT22;51663;52.310;17.016;2023-02-12T06:12:00;29.20;24.70
65072;DHT22;51663;52.310;17.016;2023-02-12T06:15:02;29.30;24.60
65072;DHT22;51663;52.310;17.016;2023-02-12T06:18:05;29.10;24.30
65072;DHT22;51663;52.310;17.016;2023-02-12T06:21:07;29.20;24.20
65072;DHT22;51663;52.310;17.016;2023-02-12T06:24:14;29.20;24.30
65072;DHT22;51663;52.310;17.016;2023-02-12T06:27:16;29.20;24.00
65072;DHT22;51663;52.310;17.016;2023-02-12T06:30:19;29.30;24.10
65072;DHT22;51663;52.310;17.016;2023-02-12T06:33:21;29.30;23.80
65072;DHT22;51663;52.310;17.016;2023-02-12T06:36:23;29.20;23.60
65072;DHT22;51663;52.310;17.016;2023-02-12T06:39:25;29.20;23.70
65072;DHT22;51663;52.310;17.016;2023-02-12T06:42:28;29.10;23.60
65072;DHT22;51663;52.310;17.016;2023-02-12T06:45:30;29.30;23.80
65072;DHT22;51663;52.310;17.016;2023-02-12T06:48:32;29.30;23.70
65072;DHT22;51663;52.310;17.016;2023-02-12T06:51:34;29.30;23.70
65072;DHT22;51663;52.310;17.016;2023-02-12T06:54:39;29.40;23.60
65072;DHT22;51663;52.310;17.016;2023-02-12T06:57:41;29.30;23.50
65072;DHT22;51663;52.310;17.016;2023-02-12T07:00:44;29.30;23.60
65072;DHT22;51663;52.310;17.016;2023-02-12T07:03:48;29.10;23.60
65072;DHT22;51663;52.310;17.016;2023-02-12T07:06:51;29.10;23.40
65072;DHT22;51663;52.310;17.016;2023-02-12T07:09:53;29.20;23.50
65072;DHT22;51663;52.310;17.016;2023-02-12T07:12:55;29.20;23.40
65072;DHT22;51663;52.310;17.016;2023-02-12T07:15:57;29.20;23.40
65072;DHT22;51663;52.310;17.016;2023-02-12T07:19:00;29.10;23.30
65072;DHT22;51663;52.310;17.016;2023-02-12T07:22:02;29.30;23.30
65072;DHT22;51663;52.310;17.016;2023-02-12T07:25:05;29.30;23.20
65072;DHT22;51663;52.310;17.016;2023-02-12T07:28:07;29.30;23.20
65072;DHT22;51663;52.310;17.016;2023-02-12T07:31:15;29.10;23.10
65072;DHT22;51663;52.310;17.016;2023-02-12T07:34:18;28.90;23.50
65072;DHT22;51663;52.310;17.016;2023-02-12T07:37:20;28.90;23.70
65072;DHT22;51663;52.310;17.016;2023-02-12T07:40:23;28.90;24.10
65072;DHT22;51663;52.310;17.016;2023-02-12T07:43:25;29.10;23.60
65072;DHT22;51663;52.310;17.016;2023-02-12T07:46:30;29.20;23.50
65072;DHT22;51663;52.310;17.016;2023-02-12T07:49:33;29.40;23.50
65072;DHT22;51663;52.310;17.016;2023-02-12T07:52:35;29.60;23.70
65072;DHT22;51663;52.310;17.016;2023-02-12T07:55:37;29.60;23.80
65072;DHT22;51663;52.310;17.016;2023-02-12T07:58:41;29.70;23.60
65072;DHT22;51663;52.310;17.016;2023-02-12T08:01:48;29.70;23.60
65072;DHT22;51663;52.310;17.016;2023-02-12T08:04:57;29.80;23.60
65072;DHT22;51663;52.310;17.016;2023-02-12T08:07:59;29.80;23.50
65072;DHT22;51663;52.310;17.016;2023-02-12T08:11:01;29.70;23.50
65072;DHT22;51663;52.310;17.016;2023-02-12T08:14:04;29.70;23.50
65072;DHT22;51663;52.310;17.016;2023-02-12T08:17:06;29.80;23.60
65072;DHT22;51663;52.310;17.016;2023-02-12T08:20:09;29.60;23.40
65072;DHT22;51663;52.310;17.016;2023-02-12T08:23:12;29.80;23.50
65072;DHT22;51663;52.310;17.016;2023-02-12T08:29:20;29.90;23.60
65072;DHT22;51663;52.310;17.016;2023-02-12T08:32:23;29.90;23.70
65072;DHT22;51663;52.310;17.016;2023-02-12T08:35:25;29.80;23.50
65072;DHT22;51663;52.310;17.016;2023-02-12T08:38:28;30.00;23.60
65072;DHT22;51663;52.310;17.016;2023-02-12T08:41:32;30.10;23.60
65072;DHT22;51663;52.310;17.016;2023-02-12T08:44:34;30.10;23.60
65072;DHT22;51663;52.310;17.016;2023-02-12T08:47:37;30.00;23.60
65072;DHT22;51663;52.310;17.016;2023-02-12T08:50:39;30.10;23.60
65072;DHT22;51663;52.310;17.016;2023-02-12T08:53:43;30.00;23.60
65072;DHT22;51663;52.310;17.016;2023-02-12T08:56:46;30.00;23.60
65072;DHT22;51663;52.310;17.016;2023-02-12T08:59:48;30.00;24.10
65072;DHT22;51663;52.310;17.016;2023-02-12T09:02:50;30.00;23.70
65072;DHT22;51663;52.310;17.016;2023-02-12T09:05:53;30.00;23.90
65072;DHT22;51663;52.310;17.016;2023-02-12T09:08:55;30.00;23.80
65072;DHT22;51663;52.310;17.016;2023-02-12T09:11:57;30.00;23.90
65072;DHT22;51663;52.310;17.016;2023-02-12T09:15:00;30.20;23.80
65072;DHT22;51663;52.310;17.016;2023-02-12T09:18:02;30.00;23.90
65072;DHT22;51663;52.310;17.016;2023-02-12T09:21:10;30.10;23.90
65072;DHT22;51663;52.310;17.016;2023-02-12T09:24:12;30.20;24.00
65072;DHT22;51663;52.310;17.016;2023-02-12T09:27:15;30.20;24.00
65072;DHT22;51663;52.310;17.016;2023-02-12T09:30:17;30.00;24.00
65072;DHT22;51663;52.310;17.016;2023-02-12T09:33:19;30.20;24.10
65072;DHT22;51663;52.310;17.016;2023-02-12T09:36:23;30.00;23.90
65072;DHT22;51663;52.310;17.016;2023-02-12T09:39:26;30.20;24.10
65072;DHT22;51663;52.310;17.016;2023-02-12T09:46:41;30.30;24.40
65072;DHT22;51663;52.310;17.016;2023-02-12T09:50:12;30.40;24.20
65072;DHT22;51663;52.310;17.016;2023-02-12T09:53:24;30.50;24.20
65072;DHT22;51663;52.310;17.016;2023-02-12T09:56:29;30.50;24.10
65072;DHT22;51663;52.310;17.016;2023-02-12T09:59:35;30.10;24.30
65072;DHT22;51663;52.310;17.016;2023-02-12T10:02:39;30.10;24.30
65072;DHT22;51663;52.310;17.016;2023-02-12T10:05:50;30.30;24.10
65072;DHT22;51663;52.310;17.016;2023-02-12T10:15:43;30.60;24.00
65072;DHT22;51663;52.310;17.016;2023-02-12T10:26:20;30.80;24.00
65072;DHT22;51663;52.310;17.016;2023-02-12T10:29:26;30.70;24.00
65072;DHT22;51663;52.310;17.016;2023-02-12T10:32:31;30.70;23.90
65072;DHT22;51663;52.310;17.016;2023-02-12T10:35:35;30.90;24.00
65072;DHT22;51663;52.310;17.016;2023-02-12T10:38:39;30.80;24.00
65072;DHT22;51663;52.310;17.016;2023-02-12T10:42:11;30.80;23.90
65072;DHT22;51663;52.310;17.016;2023-02-12T10:45:31;30.80;24.20
65072;DHT22;51663;52.310;17.016;2023-02-12T10:48:39;31.00;24.20
65072;DHT22;51663;52.310;17.016;2023-02-12T10:52:02;31.20;24.10
65072;DHT22;51663;52.310;17.016;2023-02-12T10:55:33;31.10;24.10
65072;DHT22;51663;52.310;17.016;2023-02-12T10:58:41;31.30;24.20
65072;DHT22;51663;52.310;17.016;2023-02-12T11:01:46;31.50;24.10
65072;DHT22;51663;52.310;17.016;2023-02-12T11:04:50;31.60;23.90
65072;DHT22;51663;52.310;17.016;2023-02-12T11:07:52;31.70;24.20
65072;DHT22;51663;52.310;17.016;2023-02-12T11:11:02;31.70;24.20
65072;DHT22;51663;52.310;17.016;2023-02-12T11:14:13;31.70;24.10
65072;DHT22;51663;52.310;17.016;2023-02-12T11:18:03;31.70;24.20
65072;DHT22;51663;52.310;17.016;2023-02-12T11:21:11;31.50;24.20
65072;DHT22;51663;52.310;17.016;2023-02-12T11:24:29;31.60;24.20
65072;DHT22;51663;52.310;17.016;2023-02-12T11:27:31;31.50;24.30
65072;DHT22;51663;52.310;17.016;2023-02-12T11:30:33;31.50;24.30
65072;DHT22;51663;52.310;17.016;2023-02-12T11:33:36;31.50;24.50
65072;DHT22;51663;52.310;17.016;2023-02-12T11:36:48;31.60;24.50
65072;DHT22;51663;52.310;17.016;2023-02-12T11:39:51;31.50;24.50
65072;DHT22;51663;52.310;17.016;2023-02-12T11:42:59;31.50;24.70
65072;DHT22;51663;52.310;17.016;2023-02-12T11:46:02;31.50;24.70
65072;DHT22;51663;52.310;17.016;2023-02-12T11:49:06;31.60;24.50
65072;DHT22;51663;52.310;17.016;2023-02-12T11:52:36;31.40;24.50
65072;DHT22;51663;52.310;17.016;2023-02-12T11:55:40;31.40;24.70
65072;DHT22;51663;52.310;17.016;2023-02-12T11:58:45;31.50;25.30
65072;DHT22;51663;52.310;17.016;2023-02-12T12:01:49;31.40;24.90
65072;DHT22;51663;52.310;17.016;2023-02-12T12:04:54;31.30;24.90
65072;DHT22;51663;52.310;17.016;2023-02-12T12:08:01;31.10;24.70
65072;DHT22;51663;52.310;17.016;2023-02-12T12:11:18;31.10;24.70
65072;DHT22;51663;52.310;17.016;2023-02-12T12:14:41;31.00;24.90
65072;DHT22;51663;52.310;17.016;2023-02-12T12:18:33;30.60;24.90
65072;DHT22;51663;52.310;17.016;2023-02-12T12:22:12;30.60;25.30
65072;DHT22;51663;52.310;17.016;2023-02-12T12:25:29;30.60;25.40
65072;DHT22;51663;52.310;17.016;2023-02-12T12:28:39;30.60;25.20
65072;DHT22;51663;52.310;17.016;2023-02-12T12:31:45;30.00;25.40
65072;DHT22;51663;52.310;17.016;2023-02-12T12:34:49;30.10;25.90
65072;DHT22;51663;52.310;17.016;2023-02-12T12:38:01;30.40;25.50
65072;DHT22;51663;52.310;17.016;2023-02-12T12:54:23;31.30;24.90
65072;DHT22;51663;52.310;17.016;2023-02-12T13:00:44;31.50;24.70
65072;DHT22;51663;52.310;17.016;2023-02-12T13:07:37;31.20;24.80
65072;DHT22;51663;52.310;17.016;2023-02-12T13:10:52;31.40;24.80
65072;DHT22;51663;52.310;17.016;2023-02-12T13:14:16;31.60;24.80
65072;DHT22;51663;52.310;17.016;2023-02-12T13:17:40;31.50;24.70
65072;DHT22;51663;52.310;17.016;2023-02-12T13:20:52;31.50;24.80
65072;DHT22;51663;52.310;17.016;2023-02-12T13:27:24;31.60;24.80
65072;DHT22;51663;52.310;17.016;2023-02-12T13:30:41;31.70;24.70
65072;DHT22;51663;52.310;17.016;2023-02-12T13:33:51;31.70;24.70
65072;DHT22;51663;52.310;17.016;2023-02-12T13:36:56;31.80;24.80
65072;DHT22;51663;52.310;17.016;2023-02-12T13:40:07;31.90;24.60
65072;DHT22;51663;52.310;17.016;2023-02-12T13:47:01;31.90;24.70
65072;DHT22;51663;52.310;17.016;2023-02-12T13:53:21;31.70;24.80
65072;DHT22;51663;52.310;17.016;2023-02-12T13:56:37;31.70;25.00
65072;DHT22;51663;52.310;17.016;2023-02-12T13:59:46;31.70;24.80
65072;DHT22;51663;52.310;17.016;2023-02-12T14:02:51;31.70;24.80
65072;DHT22;51663;52.310;17.016;2023-02-12T14:06:19;31.70;24.80
65072;DHT22;51663;52.310;17.016;2023-02-12T14:09:45;31.10;25.00
65072;DHT22;51663;52.310;17.016;2023-02-12T14:12:49;31.20;25.50
65072;DHT22;51663;52.310;17.016;2023-02-12T14:15:54;31.40;25.20
65072;DHT22;51663;52.310;17.016;2023-02-12T14:19:35;31.50;25.10
65072;DHT22;51663;52.310;17.016;2023-02-12T14:26:01;31.50;24.90
65072;DHT22;51663;52.310;17.016;2023-02-12T14:29:15;31.50;24.90
65072;DHT22;51663;52.310;17.016;2023-02-12T14:35:46;31.30;25.20
65072;DHT22;51663;52.310;17.016;2023-02-12T14:38:55;31.40;25.00
65072;DHT22;51663;52.310;17.016;2023-02-12T14:52:02;31.40;25.00
65072;DHT22;51663;52.310;17.016;2023-02-12T14:55:29;31.30;24.90
65072;DHT22;51663;52.310;17.016;2023-02-12T14:58:34;31.00;25.30
65072;DHT22;51663;52.310;17.016;2023-02-12T15:01:37;31.10;24.90
65072;DHT22;51663;52.310;17.016;2023-02-12T15:04:42;31.10;24.90
65072;DHT22;51663;52.310;17.016;2023-02-12T15:07:53;31.00;24.80
65072;DHT22;51663;52.310;17.016;2023-02-12T15:11:13;30.90;24.80
65072;DHT22;51663;52.310;17.016;2023-02-12T15:14:39;30.60;25.10
65072;DHT22;51663;52.310;17.016;2023-02-12T15:17:53;30.40;24.90
65072;DHT22;51663;52.310;17.016;2023-02-12T15:24:25;30.50;25.10
65072;DHT22;51663;52.310;17.016;2023-02-12T15:27:27;30.40;25.20
65072;DHT22;51663;52.310;17.016;2023-02-12T15:30:36;30.50;25.10
65072;DHT22;51663;52.310;17.016;2023-02-12T15:33:50;30.60;25.30
65072;DHT22;51663;52.310;17.016;2023-02-12T15:36:59;30.70;25.10
65072;DHT22;51663;52.310;17.016;2023-02-12T15:40:02;30.60;25.10
65072;DHT22;51663;52.310;17.016;2023-02-12T15:43:17;30.50;25.30
65072;DHT22;51663;52.310;17.016;2023-02-12T15:46:19;30.60;25.30
65072;DHT22;51663;52.310;17.016;2023-02-12T15:49:34;30.60;25.20
65072;DHT22;51663;52.310;17.016;2023-02-12T15:52:38;30.60;25.30
65072;DHT22;51663;52.310;17.016;2023-02-12T15:55:45;30.70;25.30
65072;DHT22;51663;52.310;17.016;2023-02-12T16:01:59;30.70;25.20
65072;DHT22;51663;52.310;17.016;2023-02-12T16:05:05;30.70;25.30
65072;DHT22;51663;52.310;17.016;2023-02-12T16:08:14;30.80;25.30
65072;DHT22;51663;52.310;17.016;2023-02-12T16:11:19;30.70;25.40
65072;DHT22;51663;52.310;17.016;2023-02-12T16:14:45;30.70;25.60
65072;DHT22;51663;52.310;17.016;2023-02-12T16:17:48;30.60;25.70
65072;DHT22;51663;52.310;17.016;2023-02-12T16:21:02;30.70;25.50
65072;DHT22;51663;52.310;17.016;2023-02-12T16:27:50;30.60;25.50
65072;DHT22;51663;52.310;17.016;2023-02-12T16:31:07;30.70;25.50
65072;DHT22;51663;52.310;17.016;2023-02-12T16:34:35;30.70;25.40
65072;DHT22;51663;52.310;17.016;2023-02-12T16:40:40;30.80;25.30
65072;DHT22;51663;52.310;17.016;2023-02-12T16:43:42;30.80;25.20
65072;DHT22;51663;52.310;17.016;2023-02-12T16:46:45;30.80;25.20
65072;DHT22;51663;52.310;17.016;2023-02-12T16:49:56;30.70;25.10
65072;DHT22;51663;52.310;17.016;2023-02-12T16:53:36;30.70;25.70
65072;DHT22;51663;52.310;17.016;2023-02-12T16:56:36;30.70;25.20
65072;DHT22;51663;52.310;17.016;2023-02-12T16:59:44;30.60;25.70
65072;DHT22;51663;52.310;17.016;2023-02-12T17:02:46;30.60;25.20
65072;DHT22;51663;52.310;17.016;2023-02-12T17:05:49;30.40;25.20
65072;DHT22;51663;52.310;17.016;2023-02-12T17:08:52;30.40;25.30
65072;DHT22;51663;52.310;17.016;2023-02-12T17:11:56;30.40;25.40
65072;DHT22;51663;52.310;17.016;2023-02-12T17:15:03;30.20;25.30
65072;DHT22;51663;52.310;17.016;2023-02-12T17:18:06;30.30;25.40
65072;DHT22;51663;52.310;17.016;2023-02-12T17:21:25;30.30;25.30
65072;DHT22;51663;52.310;17.016;2023-02-12T17:24:30;30.20;25.30
65072;DHT22;51663;52.310;17.016;2023-02-12T17:27:35;30.40;25.30
65072;DHT22;51663;52.310;17.016;2023-02-12T17:30:46;30.40;25.20
65072;DHT22;51663;52.310;17.016;2023-02-12T17:34:25;30.40;25.20
65072;DHT22;51663;52.310;17.016;2023-02-12T17:37:43;30.30;25.10
65072;DHT22;51663;52.310;17.016;2023-02-12T17:40:50;30.40;25.20
65072;DHT22;51663;52.310;17.016;2023-02-12T17:44:21;30.40;25.10
65072;DHT22;51663;52.310;17.016;2023-02-12T17:47:26;30.40;25.10
65072;DHT22;51663;52.310;17.016;2023-02-12T17:50:29;30.40;25.20
65072;DHT22;51663;52.310;17.016;2023-02-12T17:53:42;30.40;25.20
65072;DHT22;51663;52.310;17.016;2023-02-12T17:56:46;30.50;25.20
65072;DHT22;51663;52.310;17.016;2023-02-12T17:59:54;30.50;25.20
65072;DHT22;51663;52.310;17.016;2023-02-12T18:02:57;30.40;25.30
65072;DHT22;51663;52.310;17.016;2023-02-12T18:06:06;30.50;25.30
65072;DHT22;51663;52.310;17.016;2023-02-12T18:09:29;30.50;25.30
65072;DHT22;51663;52.310;17.016;2023-02-12T18:12:32;30.50;25.30
65072;DHT22;51663;52.310;17.016;2023-02-12T18:15:38;30.50;25.30
65072;DHT22;51663;52.310;17.016;2023-02-12T18:18:40;30.40;25.40
65072;DHT22;51663;52.310;17.016;2023-02-12T18:21:43;30.40;25.50
65072;DHT22;51663;52.310;17.016;2023-02-12T18:24:45;30.50;25.50
65072;DHT22;51663;52.310;17.016;2023-02-12T18:28:06;30.50;25.50
65072;DHT22;51663;52.310;17.016;2023-02-12T18:31:13;30.40;25.50
65072;DHT22;51663;52.310;17.016;2023-02-12T18:34:27;30.40;25.70
65072;DHT22;51663;52.310;17.016;2023-02-12T18:37:33;30.50;25.60
65072;DHT22;51663;52.310;17.016;2023-02-12T18:40:39;30.40;25.60
65072;DHT22;51663;52.310;17.016;2023-02-12T18:43:44;30.40;25.70
65072;DHT22;51663;52.310;17.016;2023-02-12T18:46:50;30.20;25.80
65072;DHT22;51663;52.310;17.016;2023-02-12T18:49:55;30.20;25.90
65072;DHT22;51663;52.310;17.016;2023-02-12T18:53:01;30.20;26.00
65072;DHT22;51663;52.310;17.016;2023-02-12T18:56:08;30.30;26.00
65072;DHT22;51663;52.310;17.016;2023-02-12T18:59:14;29.90;26.10
65072;DHT22;51663;52.310;17.016;2023-02-12T19:02:18;30.00;26.10
65072;DHT22;51663;52.310;17.016;2023-02-12T19:05:30;30.20;26.10
65072;DHT22;51663;52.310;17.016;2023-02-12T19:08:36;30.30;26.00
65072;DHT22;51663;52.310;17.016;2023-02-12T19:11:50;30.30;25.90
65072;DHT22;51663;52.310;17.016;2023-02-12T19:15:02;30.30;26.10
65072;DHT22;51663;52.310;17.016;2023-02-12T19:18:09;30.00;26.20
65072;DHT22;51663;52.310;17.016;2023-02-12T19:21:22;30.20;26.30
65072;DHT22;51663;52.310;17.016;2023-02-12T19:24:29;30.30;26.20
65072;DHT22;51663;52.310;17.016;2023-02-12T19:27:47;30.40;26.20
65072;DHT22;51663;52.310;17.016;2023-02-12T19:31:07;30.30;26.20
65072;DHT22;51663;52.310;17.016;2023-02-12T19:34:20;30.40;26.10
65072;DHT22;51663;52.310;17.016;2023-02-12T19:37:29;30.50;26.20
65072;DHT22;51663;52.310;17.016;2023-02-12T19:40:42;30.50;26.20
65072;DHT22;51663;52.310;17.016;2023-02-12T19:44:02;30.40;26.30
65072;DHT22;51663;52.310;17.016;2023-02-12T19:47:07;30.50;26.30
65072;DHT22;51663;52.310;17.016;2023-02-12T19:50:11;30.50;26.30
65072;DHT22;51663;52.310;17.016;2023-02-12T19:53:15;30.40;26.40
65072;DHT22;51663;52.310;17.016;2023-02-12T19:56:39;30.30;26.40
65072;DHT22;51663;52.310;17.016;2023-02-12T19:59:42;30.20;26.60
65072;DHT22;51663;52.310;17.016;2023-02-12T20:02:48;30.20;26.50
65072;DHT22;51663;52.310;17.016;2023-02-12T20:06:00;30.00;26.70
65072;DHT22;51663;52.310;17.016;2023-02-12T20:09:04;30.10;26.60
65072;DHT22;51663;52.310;17.016;2023-02-12T20:12:06;29.90;27.30
65072;DHT22;51663;52.310;17.016;2023-02-12T20:15:12;30.20;26.70
65072;DHT22;51663;52.310;17.016;2023-02-12T20:18:18;30.30;26.60
65072;DHT22;51663;52.310;17.016;2023-02-12T20:21:25;30.30;26.40
65072;DHT22;51663;52.310;17.016;2023-02-12T20:24:33;30.30;26.40
65072;DHT22;51663;52.310;17.016;2023-02-12T20:27:36;30.40;26.30
65072;DHT22;51663;52.310;17.016;2023-02-12T20:30:44;30.40;26.40
65072;DHT22;51663;52.310;17.016;2023-02-12T20:34:06;30.10;26.40
65072;DHT22;51663;52.310;17.016;2023-02-12T20:37:08;30.20;26.40
65072;DHT22;51663;52.310;17.016;2023-02-12T20:40:11;30.10;26.40
65072;DHT22;51663;52.310;17.016;2023-02-12T20:43:13;30.10;26.40
65072;DHT22;51663;52.310;17.016;2023-02-12T20:46:20;30.20;26.50
65072;DHT22;51663;52.310;17.016;2023-02-12T20:49:24;30.10;26.50
65072;DHT22;51663;52.310;17.016;2023-02-12T20:52:27;30.20;26.30
65072;DHT22;51663;52.310;17.016;2023-02-12T20:55:37;30.30;26.40
65072;DHT22;51663;52.310;17.016;2023-02-12T20:58:42;30.30;26.50
65072;DHT22;51663;52.310;17.016;2023-02-12T21:01:46;30.30;26.30
65072;DHT22;51663;52.310;17.016;2023-02-12T21:04:50;30.30;26.30
65072;DHT22;51663;52.310;17.016;2023-02-12T21:07:53;30.30;26.40
65072;DHT22;51663;52.310;17.016;2023-02-12T21:11:00;30.20;26.30
65072;DHT22;51663;52.310;17.016;2023-02-12T21:14:05;30.30;26.40
65072;DHT22;51663;52.310;17.016;2023-02-12T21:17:25;30.30;26.30
65072;DHT22;51663;52.310;17.016;2023-02-12T21:20:34;30.40;26.20
65072;DHT22;51663;52.310;17.016;2023-02-12T21:23:37;30.40;26.10